sensor_id;sensor_type;location;lat;lon;timestamp;pressure;altitude;pressure_sealevel;temperature;humidity
19594;BME280;9944;48.240;16.478;2023-03-26T00:00:27;99182.47;;;8.57;58.36
19594;BME280;9944;48.240;16.478;2023-03-26T00:04:30;99193.84;;;8.59;58.42
19594;BME280;9944;48.240;16.478;2023-03-26T00:08:37;99177.19;;;8.60;58.62
19594;BME280;9944;48.240;16.478;2023-03-26T00:12:40;99187.72;;;8.60;58.25
19594;BME280;9944;48.240;16.478;2023-03-26T00:16:44;99173.69;;;8.61;58.37
19594;BME280;9944;48.240;16.478;2023-03-26T00:20:48;99170.16;;;8.62;58.40
19594;BME280;9944;48.240;16.478;2023-03-26T00:24:52;99178.03;;;8.62;58.32
19594;BME280;9944;48.240;16.478;2023-03-26T00:28:58;99167.53;;;8.62;58.43
19594;BME280;9944;48.240;16.478;2023-03-26T00:33:02;99166.66;;;8.63;58.37
19594;BME280;9944;48.240;16.478;2023-03-26T00:37:05;99163.97;;;8.66;57.99
19594;BME280;9944;48.240;16.478;2023-03-26T00:41:13;99163.97;;;8.69;58.09
19594;BME280;9944;48.240;16.478;2023-03-26T00:45:24;99149.94;;;8.70;57.88
19594;BME280;9944;48.240;16.478;2023-03-26T00:49:27;99153.44;;;8.69;57.96
19594;BME280;9944;48.240;16.478;2023-03-26T00:53:31;99142.03;;;8.71;58.21
19594;BME280;9944;48.240;16.478;2023-03-26T00:57:36;99147.25;;;8.76;57.87
19594;BME280;9944;48.240;16.478;2023-03-26T01:01:41;99137.63;;;8.75;57.63
19594;BME280;9944;48.240;16.478;2023-03-26T01:05:47;99135.88;;;8.74;58.09
19594;BME280;9944;48.240;16.478;2023-03-26T01:09:55;99129.72;;;8.75;57.96
19594;BME280;9944;48.240;16.478;2023-03-26T01:14:06;99135.88;;;8.74;57.59
19594;BME280;9944;48.240;16.478;2023-03-26T01:18:10;99126.19;;;8.76;57.85
19594;BME280;9944;48.240;16.478;2023-03-26T01:22:16;99110.41;;;8.76;57.90
19594;BME280;9944;48.240;16.478;2023-03-26T01:26:35;99100.78;;;8.78;57.83
19594;BME280;9944;48.240;16.478;2023-03-26T01:30:47;99094.59;;;8.81;57.73
19594;BME280;9944;48.240;16.478;2023-03-26T01:58:34;99092.81;;;8.81;57.89
19594;BME280;9944;48.240;16.478;2023-03-26T02:02:47;99112.16;;;8.80;57.99
19594;BME280;9944;48.240;16.478;2023-03-26T02:06:59;99094.59;;;8.81;57.91
19594;BME280;9944;48.240;16.478;2023-03-26T02:11:08;99091.94;;;8.82;58.06
19594;BME280;9944;48.240;16.478;2023-03-26T02:15:15;99099.00;;;8.80;58.27
19594;BME280;9944;48.240;16.478;2023-03-26T02:19:18;99099.00;;;8.80;58.32
19594;BME280;9944;48.240;16.478;2023-03-26T02:23:25;99099.00;;;8.77;58.39
19594;BME280;9944;48.240;16.478;2023-03-26T02:27:30;99099.88;;;8.76;58.26
19594;BME280;9944;48.240;16.478;2023-03-26T02:31:36;99102.50;;;8.76;58.13
19594;BME280;9944;48.240;16.478;2023-03-26T02:35:39;99099.00;;;8.79;58.17
19594;BME280;9944;48.240;16.478;2023-03-26T02:39:42;99107.75;;;8.82;58.24
19594;BME280;9944;48.240;16.478;2023-03-26T02:43:58;99110.38;;;8.81;58.26
19594;BME280;9944;48.240;16.478;2023-03-26T02:48:26;99111.28;;;8.78;58.18
19594;BME280;9944;48.240;16.478;2023-03-26T02:52:38;99106.03;;;8.75;58.41
19594;BME280;9944;48.240;16.478;2023-03-26T02:56:41;99107.78;;;8.76;58.62
19594;BME280;9944;48.240;16.478;2023-03-26T03:01:07;99114.81;;;8.74;58.39
19594;BME280;9944;48.240;16.478;2023-03-26T03:05:23;99113.97;;;8.72;58.37
19594;BME280;9944;48.240;16.478;2023-03-26T03:09:47;99121.00;;;8.71;58.43
19594;BME280;9944;48.240;16.478;2023-03-26T03:14:10;99113.13;;;8.67;58.76
19594;BME280;9944;48.240;16.478;2023-03-26T03:18:13;99118.38;;;8.67;58.47
19594;BME280;9944;48.240;16.478;2023-03-26T03:22:17;99113.13;;;8.67;58.60
19594;BME280;9944;48.240;16.478;2023-03-26T03:26:24;99111.34;;;8.66;58.63
19594;BME280;9944;48.240;16.478;2023-03-26T03:30:34;99108.72;;;8.66;58.64
19594;BME280;9944;48.240;16.478;2023-03-26T03:34:46;99109.66;;;8.62;59.05
19594;BME280;9944;48.240;16.478;2023-03-26T03:38:52;99109.66;;;8.60;58.59
19594;BME280;9944;48.240;16.478;2023-03-26T03:42:57;99112.28;;;8.62;58.66
19594;BME280;9944;48.240;16.478;2023-03-26T03:47:09;99116.66;;;8.63;59.07
19594;BME280;9944;48.240;16.478;2023-03-26T03:51:15;99107.88;;;8.64;58.88
19594;BME280;9944;48.240;16.478;2023-03-26T03:55:26;99107.88;;;8.64;58.75
19594;BME280;9944;48.240;16.478;2023-03-26T03:59:29;99102.66;;;8.61;58.74
19594;BME280;9944;48.240;16.478;2023-03-26T04:03:33;99126.34;;;8.61;59.20
19594;BME280;9944;48.240;16.478;2023-03-26T04:07:45;99126.34;;;8.61;58.90
19594;BME280;9944;48.240;16.478;2023-03-26T04:11:52;99134.22;;;8.61;59.17
19594;BME280;9944;48.240;16.478;2023-03-26T04:16:15;99138.59;;;8.62;59.19
19594;BME280;9944;48.240;16.478;2023-03-26T04:20:19;99139.50;;;8.59;59.16
19594;BME280;9944;48.240;16.478;2023-03-26T04:24:24;99142.13;;;8.58;59.35
19594;BME280;9944;48.240;16.478;2023-03-26T04:28:52;99137.75;;;8.57;59.53
19594;BME280;9944;48.240;16.478;2023-03-26T04:33:01;99143.91;;;8.55;59.33
19594;BME280;9944;48.240;16.478;2023-03-26T04:37:16;99141.28;;;8.54;59.34
19594;BME280;9944;48.240;16.478;2023-03-26T04:41:34;99150.88;;;8.57;59.50
19594;BME280;9944;48.240;16.478;2023-03-26T04:45:41;99152.66;;;8.56;59.31
19594;BME280;9944;48.240;16.478;2023-03-26T04:49:46;99133.38;;;8.54;59.15
19594;BME280;9944;48.240;16.478;2023-03-26T04:53:53;99136.00;;;8.55;59.29
19594;BME280;9944;48.240;16.478;2023-03-26T04:58:04;99129.84;;;8.55;59.38
19594;BME280;9944;48.240;16.478;2023-03-26T05:02:26;99136.88;;;8.53;59.33
19594;BME280;9944;48.240;16.478;2023-03-26T05:06:30;99139.50;;;8.54;59.34
19594;BME280;9944;48.240;16.478;2023-03-26T05:10:40;99144.78;;;8.54;59.38
19594;BME280;9944;48.240;16.478;2023-03-26T05:14:48;99143.00;;;8.57;58.97
19594;BME280;9944;48.240;16.478;2023-03-26T05:19:01;99150.00;;;8.61;59.05
19594;BME280;9944;48.240;16.478;2023-03-26T05:23:08;99136.81;;;8.64;58.93
19594;BME280;9944;48.240;16.478;2023-03-26T05:27:27;99146.41;;;8.71;59.16
19594;BME280;9944;48.240;16.478;2023-03-26T05:31:30;99142.88;;;8.77;59.02
19594;BME280;9944;48.240;16.478;2023-03-26T05:35:36;99149.84;;;8.82;59.06
19594;BME280;9944;48.240;16.478;2023-03-26T05:39:42;99139.28;;;8.88;58.79
19594;BME280;9944;48.240;16.478;2023-03-26T05:44:04;99149.75;;;8.93;59.00
19594;BME280;9944;48.240;16.478;2023-03-26T05:48:09;99143.56;;;8.99;58.94
19594;BME280;9944;48.240;16.478;2023-03-26T05:52:13;99147.94;;;9.04;58.97
19594;BME280;9944;48.240;16.478;2023-03-26T05:56:38;99145.25;;;9.09;58.57
19594;BME280;9944;48.240;16.478;2023-03-26T06:01:01;99140.88;;;9.11;58.71
19594;BME280;9944;48.240;16.478;2023-03-26T06:05:26;99151.34;;;9.17;58.44
19594;BME280;9944;48.240;16.478;2023-03-26T06:09:57;99159.22;;;9.20;57.94
19594;BME280;9944;48.240;16.478;2023-03-26T06:14:00;99154.78;;;9.22;58.03
19594;BME280;9944;48.240;16.478;2023-03-26T06:18:04;99166.19;;;9.26;58.13
19594;BME280;9944;48.240;16.478;2023-03-26T06:22:28;99174.94;;;9.26;57.96
19594;BME280;9944;48.240;16.478;2023-03-26T06:26:51;99191.63;;;9.28;58.04
19594;BME280;9944;48.240;16.478;2023-03-26T06:30:58;99186.31;;;9.31;57.94
19594;BME280;9944;48.240;16.478;2023-03-26T06:35:10;99197.69;;;9.35;58.22
19594;BME280;9944;48.240;16.478;2023-03-26T06:39:14;99190.63;;;9.42;57.98
19594;BME280;9944;48.240;16.478;2023-03-26T06:43:28;99194.88;;;9.58;58.39
19594;BME280;9944;48.240;16.478;2023-03-26T06:48:04;99200.03;;;9.67;58.21
19594;BME280;9944;48.240;16.478;2023-03-26T06:52:24;99198.25;;;9.71;58.22
19594;BME280;9944;48.240;16.478;2023-03-26T06:56:42;99199.94;;;9.77;58.51
19594;BME280;9944;48.240;16.478;2023-03-26T07:01:16;99198.13;;;9.82;57.78
19594;BME280;9944;48.240;16.478;2023-03-26T07:05:40;99184.06;;;9.86;58.03
19594;BME280;9944;48.240;16.478;2023-03-26T07:10:01;99178.69;;;9.95;57.83
19594;BME280;9944;48.240;16.478;2023-03-26T07:14:38;99179.50;;;10.03;57.44
19594;BME280;9944;48.240;16.478;2023-03-26T07:18:51;99174.09;;;10.14;57.23
19594;BME280;9944;48.240;16.478;2023-03-26T07:23:00;99176.59;;;10.25;57.95
19594;BME280;9944;48.240;16.478;2023-03-26T07:27:19;99165.00;;;10.38;56.63
19594;BME280;9944;48.240;16.478;2023-03-26T07:31:32;99167.47;;;10.51;57.10
19594;BME280;9944;48.240;16.478;2023-03-26T07:36:17;99160.31;;;10.59;56.71
19594;BME280;9944;48.240;16.478;2023-03-26T07:40:45;99168.28;;;10.56;56.06
19594;BME280;9944;48.240;16.478;2023-03-26T07:45:02;99154.41;;;10.41;56.51
19594;BME280;9944;48.240;16.478;2023-03-26T07:49:23;99157.94;;;10.39;56.45
19594;BME280;9944;48.240;16.478;2023-03-26T07:53:48;99153.56;;;10.39;56.51
19594;BME280;9944;48.240;16.478;2023-03-26T08:03:18;99150.75;;;10.50;56.09
19594;BME280;9944;48.240;16.478;2023-03-26T08:07:34;99143.59;;;10.58;55.99
19594;BME280;9944;48.240;16.478;2023-03-26T08:11:53;99144.97;;;10.84;55.75
19594;BME280;9944;48.240;16.478;2023-03-26T08:16:03;99134.00;;;11.09;55.19
19594;BME280;9944;48.240;16.478;2023-03-26T08:20:21;99130.97;;;11.35;53.66
19594;BME280;9944;48.240;16.478;2023-03-26T08:24:34;99133.28;;;11.52;53.70
19594;BME280;9944;48.240;16.478;2023-03-26T08:28:55;99132.19;;;11.64;54.14
19594;BME280;9944;48.240;16.478;2023-03-26T08:33:11;99124.88;;;11.78;53.63
19594;BME280;9944;48.240;16.478;2023-03-26T08:37:14;99119.47;;;11.84;53.15
19594;BME280;9944;48.240;16.478;2023-03-26T08:46:27;99103.28;;;12.00;52.58
19594;BME280;9944;48.240;16.478;2023-03-26T08:50:48;99101.09;;;12.20;52.75
19594;BME280;9944;48.240;16.478;2023-03-26T08:55:29;99100.84;;;12.32;51.77
19594;BME280;9944;48.240;16.478;2023-03-26T09:04:55;99081.19;;;12.43;51.43
19594;BME280;9944;48.240;16.478;2023-03-26T09:14:07;99061.44;;;12.56;51.55
19594;BME280;9944;48.240;16.478;2023-03-26T09:27:42;99021.78;;;12.91;49.33
19594;BME280;9944;48.240;16.478;2023-03-26T09:32:14;99007.63;;;12.93;50.24
19594;BME280;9944;48.240;16.478;2023-03-26T09:36:31;99013.56;;;13.01;50.19
19594;BME280;9944;48.240;16.478;2023-03-26T09:40:46;99006.22;;;13.13;49.33
19594;BME280;9944;48.240;16.478;2023-03-26T09:45:15;99003.22;;;13.25;49.46
19594;BME280;9944;48.240;16.478;2023-03-26T09:49:43;99000.19;;;13.39;49.37
19594;BME280;9944;48.240;16.478;2023-03-26T09:54:04;98986.88;;;13.40;47.90
19594;BME280;9944;48.240;16.478;2023-03-26T10:03:17;98968.88;;;13.52;47.61
19594;BME280;9944;48.240;16.478;2023-03-26T10:07:45;98967.00;;;13.55;47.18
19594;BME280;9944;48.240;16.478;2023-03-26T10:12:05;98952.63;;;13.64;47.91
19594;BME280;9944;48.240;16.478;2023-03-26T10:16:20;98938.97;;;13.78;47.20
19594;BME280;9944;48.240;16.478;2023-03-26T10:20:47;98919.25;;;13.87;46.54
19594;BME280;9944;48.240;16.478;2023-03-26T10:25:12;98902.09;;;13.97;46.77
19594;BME280;9944;48.240;16.478;2023-03-26T10:29:42;98888.50;;;14.08;46.30
19594;BME280;9944;48.240;16.478;2023-03-26T10:33:59;98880.28;;;14.15;45.78
19594;BME280;9944;48.240;16.478;2023-03-26T10:38:14;98875.63;;;14.22;45.43
19594;BME280;9944;48.240;16.478;2023-03-26T10:42:30;98862.13;;;14.28;45.44
19594;BME280;9944;48.240;16.478;2023-03-26T10:46:55;98860.09;;;14.36;44.91
19594;BME280;9944;48.240;16.478;2023-03-26T10:51:15;98844.22;;;14.35;44.34
19594;BME280;9944;48.240;16.478;2023-03-26T10:55:28;98840.31;;;14.45;43.78
19594;BME280;9944;48.240;16.478;2023-03-26T10:59:33;98827.09;;;14.44;44.04
19594;BME280;9944;48.240;16.478;2023-03-26T11:03:47;98829.25;;;14.57;43.93
19594;BME280;9944;48.240;16.478;2023-03-26T11:07:57;98825.13;;;14.74;43.37
19594;BME280;9944;48.240;16.478;2023-03-26T11:12:09;98807.97;;;14.84;43.33
19594;BME280;9944;48.240;16.478;2023-03-26T11:16:37;98793.53;;;14.91;43.04
19594;BME280;9944;48.240;16.478;2023-03-26T11:20:47;98788.59;;;15.04;43.18
19594;BME280;9944;48.240;16.478;2023-03-26T11:25:03;98783.63;;;15.19;42.78
19594;BME280;9944;48.240;16.478;2023-03-26T11:29:29;98771.88;;;15.24;41.71
19594;BME280;9944;48.240;16.478;2023-03-26T11:33:42;98752.91;;;15.34;41.76
19594;BME280;9944;48.240;16.478;2023-03-26T11:37:51;98741.81;;;15.44;41.86
19594;BME280;9944;48.240;16.478;2023-03-26T11:42:03;98742.19;;;15.57;40.62
19594;BME280;9944;48.240;16.478;2023-03-26T11:46:21;98742.00;;;15.62;40.71
19594;BME280;9944;48.240;16.478;2023-03-26T11:50:26;98725.84;;;15.66;40.55
19594;BME280;9944;48.240;16.478;2023-03-26T11:54:31;98717.69;;;15.71;40.55
19594;BME280;9944;48.240;16.478;2023-03-26T11:58:41;98704.44;;;15.69;39.00
19594;BME280;9944;48.240;16.478;2023-03-26T12:02:48;98693.06;;;15.66;38.20
19594;BME280;9944;48.240;16.478;2023-03-26T12:06:54;98686.22;;;15.60;38.71
19594;BME280;9944;48.240;16.478;2023-03-26T12:11:02;98684.28;;;15.64;39.47
19594;BME280;9944;48.240;16.478;2023-03-26T12:15:11;98670.97;;;15.64;37.86
19594;BME280;9944;48.240;16.478;2023-03-26T12:19:18;98671.16;;;15.59;37.59
19594;BME280;9944;48.240;16.478;2023-03-26T12:23:43;98665.19;;;15.54;37.30
19594;BME280;9944;48.240;16.478;2023-03-26T12:27:48;98658.06;;;15.55;37.29
19594;BME280;9944;48.240;16.478;2023-03-26T12:31:55;98644.31;;;15.65;37.78
19594;BME280;9944;48.240;16.478;2023-03-26T12:36:16;98637.78;;;15.73;36.73
19594;BME280;9944;48.240;16.478;2023-03-26T12:40:29;98626.94;;;15.77;37.72
19594;BME280;9944;48.240;16.478;2023-03-26T12:44:37;98618.75;;;15.82;37.40
19594;BME280;9944;48.240;16.478;2023-03-26T12:49:05;98625.56;;;15.89;37.32
19594;BME280;9944;48.240;16.478;2023-03-26T12:53:27;98620.81;;;15.96;36.35
19594;BME280;9944;48.240;16.478;2023-03-26T12:57:40;98599.28;;;16.02;36.65
19594;BME280;9944;48.240;16.478;2023-03-26T13:01:54;98592.94;;;16.04;35.87
19594;BME280;9944;48.240;16.478;2023-03-26T13:06:23;98589.34;;;16.05;36.20
19594;BME280;9944;48.240;16.478;2023-03-26T13:10:43;98586.44;;;16.10;35.45
19594;BME280;9944;48.240;16.478;2023-03-26T13:15:07;98577.47;;;16.13;34.65
19594;BME280;9944;48.240;16.478;2023-03-26T13:19:18;98563.13;;;16.15;35.49
19594;BME280;9944;48.240;16.478;2023-03-26T13:23:30;98559.41;;;16.19;36.22
19594;BME280;9944;48.240;16.478;2023-03-26T13:27:46;98541.63;;;16.20;34.98
19594;BME280;9944;48.240;16.478;2023-03-26T13:31:57;98548.97;;;16.15;35.50
19594;BME280;9944;48.240;16.478;2023-03-26T13:36:11;98547.09;;;16.17;35.71
19594;BME280;9944;48.240;16.478;2023-03-26T13:40:31;98533.84;;;16.15;34.79
19594;BME280;9944;48.240;16.478;2023-03-26T13:44:48;98530.34;;;16.15;35.09
19594;BME280;9944;48.240;16.478;2023-03-26T13:49:10;98517.09;;;16.13;35.51
19594;BME280;9944;48.240;16.478;2023-03-26T13:53:20;98522.41;;;16.13;34.91
19594;BME280;9944;48.240;16.478;2023-03-26T13:57:28;98513.78;;;16.08;35.47
19594;BME280;9944;48.240;16.478;2023-03-26T14:01:39;98503.13;;;16.08;35.51
19594;BME280;9944;48.240;16.478;2023-03-26T14:05:48;98481.75;;;16.10;35.52
19594;BME280;9944;48.240;16.478;2023-03-26T14:09:57;98474.78;;;16.07;36.01
19594;BME280;9944;48.240;16.478;2023-03-26T14:14:05;98457.09;;;16.06;36.63
19594;BME280;9944;48.240;16.478;2023-03-26T14:18:23;98432.19;;;16.07;36.71
19594;BME280;9944;48.240;16.478;2023-03-26T14:22:33;98431.31;;;16.06;36.95
19594;BME280;9944;48.240;16.478;2023-03-26T14:26:52;98441.97;;;16.06;36.66
19594;BME280;9944;48.240;16.478;2023-03-26T14:31:16;98435.78;;;16.06;36.34
19594;BME280;9944;48.240;16.478;2023-03-26T14:35:32;98419.75;;;16.08;36.34
19594;BME280;9944;48.240;16.478;2023-03-26T14:39:52;98415.50;;;16.03;36.23
19594;BME280;9944;48.240;16.478;2023-03-26T14:44:38;98411.91;;;16.04;37.15
19594;BME280;9944;48.240;16.478;2023-03-26T14:53:30;98390.25;;;15.93;36.90
19594;BME280;9944;48.240;16.478;2023-03-26T14:57:56;98393.22;;;15.87;37.02
19594;BME280;9944;48.240;16.478;2023-03-26T15:07:28;98394.09;;;15.87;38.05
19594;BME280;9944;48.240;16.478;2023-03-26T15:11:46;98379.97;;;15.85;38.25
19594;BME280;9944;48.240;16.478;2023-03-26T15:16:15;98374.06;;;15.79;38.45
19594;BME280;9944;48.240;16.478;2023-03-26T15:20:48;98381.53;;;15.70;38.98
19594;BME280;9944;48.240;16.478;2023-03-26T15:25:44;98375.75;;;15.62;39.35
19594;BME280;9944;48.240;16.478;2023-03-26T15:39:38;98376.53;;;15.45;39.73
19594;BME280;9944;48.240;16.478;2023-03-26T15:44:19;98374.88;;;15.43;40.43
19594;BME280;9944;48.240;16.478;2023-03-26T15:48:54;98373.38;;;15.37;41.01
19594;BME280;9944;48.240;16.478;2023-03-26T15:53:11;98371.06;;;15.29;41.71
19594;BME280;9944;48.240;16.478;2023-03-26T15:57:25;98360.72;;;15.23;41.64
19594;BME280;9944;48.240;16.478;2023-03-26T16:01:42;98362.06;;;15.13;40.84
19594;BME280;9944;48.240;16.478;2023-03-26T16:06:08;98378.78;;;14.96;39.78
19594;BME280;9944;48.240;16.478;2023-03-26T16:10:24;98392.53;;;14.85;39.95
19594;BME280;9944;48.240;16.478;2023-03-26T16:14:41;98398.63;;;14.67;39.41
19594;BME280;9944;48.240;16.478;2023-03-26T16:18:47;98406.06;;;14.59;39.64
19594;BME280;9944;48.240;16.478;2023-03-26T16:22:58;98424.22;;;14.47;39.50
19594;BME280;9944;48.240;16.478;2023-03-26T16:31:22;98426.59;;;14.33;40.28
19594;BME280;9944;48.240;16.478;2023-03-26T16:35:51;98428.69;;;14.25;40.71
19594;BME280;9944;48.240;16.478;2023-03-26T16:40:27;98424.75;;;14.13;42.13
19594;BME280;9944;48.240;16.478;2023-03-26T16:44:40;98423.53;;;13.99;41.84
19594;BME280;9944;48.240;16.478;2023-03-26T16:48:52;98426.47;;;13.92;42.37
19594;BME280;9944;48.240;16.478;2023-03-26T16:53:06;98423.31;;;13.82;42.58
19594;BME280;9944;48.240;16.478;2023-03-26T16:57:23;98428.81;;;13.77;42.87
19594;BME280;9944;48.240;16.478;2023-03-26T17:01:34;98424.56;;;13.72;43.15
19594;BME280;9944;48.240;16.478;2023-03-26T17:05:55;98424.00;;;13.63;43.38
19594;BME280;9944;48.240;16.478;2023-03-26T17:10:09;98433.38;;;13.50;44.20
19594;BME280;9944;48.240;16.478;2023-03-26T17:14:26;98440.91;;;13.37;43.83
19594;BME280;9944;48.240;16.478;2023-03-26T17:18:41;98461.59;;;13.28;44.49
19594;BME280;9944;48.240;16.478;2023-03-26T17:22:50;98466.44;;;13.15;44.41
19594;BME280;9944;48.240;16.478;2023-03-26T17:27:09;98460.78;;;13.00;44.80
19594;BME280;9944;48.240;16.478;2023-03-26T17:31:34;98465.56;;;12.89;45.08
19594;BME280;9944;48.240;16.478;2023-03-26T17:35:41;98459.00;;;12.76;45.40
19594;BME280;9944;48.240;16.478;2023-03-26T17:44:42;98463.13;;;12.56;46.65
19594;BME280;9944;48.240;16.478;2023-03-26T17:48:52;98462.59;;;12.46;46.77
19594;BME280;9944;48.240;16.478;2023-03-26T17:52:59;98455.69;;;12.41;47.00
19594;BME280;9944;48.240;16.478;2023-03-26T17:57:05;98472.69;;;12.34;47.79
19594;BME280;9944;48.240;16.478;2023-03-26T18:01:22;98459.63;;;12.29;47.87
19594;BME280;9944;48.240;16.478;2023-03-26T18:05:32;98460.66;;;12.23;48.32
19594;BME280;9944;48.240;16.478;2023-03-26T18:09:46;98458.25;;;12.17;48.31
19594;BME280;9944;48.240;16.478;2023-03-26T18:18:39;98455.59;;;12.17;48.63
19594;BME280;9944;48.240;16.478;2023-03-26T18:22:47;98452.13;;;12.15;48.99
19594;BME280;9944;48.240;16.478;2023-03-26T18:26:54;98452.28;;;12.10;49.26
19594;BME280;9944;48.240;16.478;2023-03-26T18:31:08;98456.78;;;12.07;49.31
19594;BME280;9944;48.240;16.478;2023-03-26T18:35:15;98446.22;;;12.07;49.32
19594;BME280;9944;48.240;16.478;2023-03-26T18:39:22;98444.59;;;12.03;49.79
19594;BME280;9944;48.240;16.478;2023-03-26T18:43:26;98443.66;;;12.04;49.77
19594;BME280;9944;48.240;16.478;2023-03-26T18:47:35;98436.66;;;12.03;49.95
19594;BME280;9944;48.240;16.478;2023-03-26T18:51:39;98439.34;;;12.01;50.12
19594;BME280;9944;48.240;16.478;2023-03-26T18:55:59;98428.94;;;11.95;50.25
19594;BME280;9944;48.240;16.478;2023-03-26T19:00:16;98425.44;;;11.94;50.51
19594;BME280;9944;48.240;16.478;2023-03-26T19:04:22;98408.78;;;11.92;50.37
19594;BME280;9944;48.240;16.478;2023-03-26T19:08:26;98400.84;;;11.92;50.60
19594;BME280;9944;48.240;16.478;2023-03-26T19:12:32;98394.63;;;11.93;50.60
19594;BME280;9944;48.240;16.478;2023-03-26T19:16:37;98381.41;;;11.93;50.51
19594;BME280;9944;48.240;16.478;2023-03-26T19:20:46;98381.25;;;11.98;50.96
19594;BME280;9944;48.240;16.478;2023-03-26T19:24:54;98367.22;;;11.96;50.55
19594;BME280;9944;48.240;16.478;2023-03-26T19:29:00;98361.94;;;11.96;50.66
19594;BME280;9944;48.240;16.478;2023-03-26T19:33:05;98342.75;;;11.89;50.92
19594;BME280;9944;48.240;16.478;2023-03-26T19:37:20;98346.47;;;11.84;51.06
19594;BME280;9944;48.240;16.478;2023-03-26T19:41:25;98358.00;;;11.81;51.08
19594;BME280;9944;48.240;16.478;2023-03-26T19:45:34;98368.00;;;11.71;51.21
19594;BME280;9944;48.240;16.478;2023-03-26T19:49:58;98362.91;;;11.65;51.25
19594;BME280;9944;48.240;16.478;2023-03-26T19:54:11;98367.41;;;11.62;51.27
19594;BME280;9944;48.240;16.478;2023-03-26T19:58:16;98355.06;;;11.62;51.38
19594;BME280;9944;48.240;16.478;2023-03-26T20:02:21;98347.38;;;11.54;51.82
19594;BME280;9944;48.240;16.478;2023-03-26T20:06:25;98343.22;;;11.47;51.53
19594;BME280;9944;48.240;16.478;2023-03-26T20:10:43;98334.66;;;11.39;51.84
19594;BME280;9944;48.240;16.478;2023-03-26T20:14:46;98337.41;;;11.34;52.11
19594;BME280;9944;48.240;16.478;2023-03-26T20:18:51;98331.28;;;11.34;52.18
19594;BME280;9944;48.240;16.478;2023-03-26T20:22:57;98341.84;;;11.34;51.91
19594;BME280;9944;48.240;16.478;2023-03-26T20:27:00;98336.59;;;11.32;52.21
19594;BME280;9944;48.240;16.478;2023-03-26T20:31:04;98329.63;;;11.30;52.34
19594;BME280;9944;48.240;16.478;2023-03-26T20:35:20;98321.69;;;11.30;52.37
19594;BME280;9944;48.240;16.478;2023-03-26T20:39:37;98316.53;;;11.25;51.91
19594;BME280;9944;48.240;16.478;2023-03-26T20:43:40;98320.13;;;11.23;51.91
19594;BME280;9944;48.240;16.478;2023-03-26T20:47:44;98308.78;;;11.19;51.98
19594;BME280;9944;48.240;16.478;2023-03-26T20:51:49;98305.28;;;11.18;51.68
19594;BME280;9944;48.240;16.478;2023-03-26T20:55:53;98303.47;;;11.21;52.24
19594;BME280;9944;48.240;16.478;2023-03-26T20:59:56;98301.75;;;11.19;51.89
19594;BME280;9944;48.240;16.478;2023-03-26T21:04:00;98298.22;;;11.19;52.08
19594;BME280;9944;48.240;16.478;2023-03-26T21:08:12;98294.72;;;11.18;51.87
19594;BME280;9944;48.240;16.478;2023-03-26T21:12:22;98283.16;;;11.23;52.12
19594;BME280;9944;48.240;16.478;2023-03-26T21:16:29;98283.09;;;11.24;52.07
19594;BME280;9944;48.240;16.478;2023-03-26T21:20:33;98279.56;;;11.25;52.00
19594;BME280;9944;48.240;16.478;2023-03-26T21:24:50;98278.66;;;11.26;52.23
19594;BME280;9944;48.240;16.478;2023-03-26T21:28:57;98274.25;;;11.27;52.28
19594;BME280;9944;48.240;16.478;2023-03-26T21:33:01;98268.13;;;11.25;52.10
19594;BME280;9944;48.240;16.478;2023-03-26T21:37:06;98268.22;;;11.22;52.48
19594;BME280;9944;48.240;16.478;2023-03-26T21:41:28;98268.31;;;11.18;52.30
19594;BME280;9944;48.240;16.478;2023-03-26T21:45:37;98263.13;;;11.15;52.66
19594;BME280;9944;48.240;16.478;2023-03-26T21:49:40;98259.66;;;11.13;52.85
19594;BME280;9944;48.240;16.478;2023-03-26T21:53:44;98251.75;;;11.13;53.24
19594;BME280;9944;48.240;16.478;2023-03-26T21:58:03;98240.38;;;11.11;53.24
19594;BME280;9944;48.240;16.478;2023-03-26T22:02:20;98245.84;;;11.05;53.20
19594;BME280;9944;48.240;16.478;2023-03-26T22:06:28;98234.47;;;11.03;53.42
19594;BME280;9944;48.240;16.478;2023-03-26T22:10:33;98235.38;;;11.02;53.31
19594;BME280;9944;48.240;16.478;2023-03-26T22:14:37;98239.78;;;11.02;53.33
19594;BME280;9944;48.240;16.478;2023-03-26T22:18:41;98244.22;;;11.01;53.48
19594;BME280;9944;48.240;16.478;2023-03-26T22:22:45;98244.38;;;10.95;53.81
19594;BME280;9944;48.240;16.478;2023-03-26T22:26:49;98241.03;;;10.90;53.74
19594;BME280;9944;48.240;16.478;2023-03-26T22:30:54;98237.56;;;10.88;53.94
19594;BME280;9944;48.240;16.478;2023-03-26T22:34:58;98232.41;;;10.85;53.81
19594;BME280;9944;48.240;16.478;2023-03-26T22:39:01;98232.56;;;10.78;54.06
19594;BME280;9944;48.240;16.478;2023-03-26T22:43:05;98238.91;;;10.73;54.11
19594;BME280;9944;48.240;16.478;2023-03-26T22:47:09;98224.09;;;10.67;54.18
19594;BME280;9944;48.240;16.478;2023-03-26T22:51:14;98218.94;;;10.64;54.19
19594;BME280;9944;48.240;16.478;2023-03-26T22:55:17;98212.84;;;10.62;54.74
19594;BME280;9944;48.240;16.478;2023-03-26T22:59:30;98213.72;;;10.61;54.83
19594;BME280;9944;48.240;16.478;2023-03-26T23:03:35;98213.81;;;10.58;55.01
19594;BME280;9944;48.240;16.478;2023-03-26T23:07:40;98203.34;;;10.55;54.88
19594;BME280;9944;48.240;16.478;2023-03-26T23:11:44;98204.34;;;10.51;55.01
19594;BME280;9944;48.240;16.478;2023-03-26T23:15:47;98189.53;;;10.47;55.00
19594;BME280;9944;48.240;16.478;2023-03-26T23:19:52;98184.34;;;10.43;55.24
19594;BME280;9944;48.240;16.478;2023-03-26T23:23:56;98189.72;;;10.40;55.90
19594;BME280;9944;48.240;16.478;2023-03-26T23:27:59;98190.69;;;10.38;55.45
19594;BME280;9944;48.240;16.478;2023-03-26T23:32:03;98194.16;;;10.38;55.50
19594;BME280;9944;48.240;16.478;2023-03-26T23:36:27;98191.59;;;10.35;55.59
19594;BME280;9944;48.240;16.478;2023-03-26T23:40:30;98189.00;;;10.34;55.71
19594;BME280;9944;48.240;16.478;2023-03-26T23:44:34;98183.03;;;10.27;55.74
19594;BME280;9944;48.240;16.478;2023-03-26T23:48:39;98184.88;;;10.25;56.18
19594;BME280;9944;48.240;16.478;2023-03-26T23:52:45;98182.31;;;10.22;56.40